sensor_id;sensor_type;location;lat;lon;timestamp;P1;durP1;ratioP1;P2;durP2;ratioP2
20073;SDS011;10197;54.282;10.078;2023-11-22T00:00:14;4.30;;;2.60;;
20073;SDS011;10197;54.282;10.078;2023-11-22T00:02:41;3.75;;;2.90;;
20073;SDS011;10197;54.282;10.078;2023-11-22T00:05:08;2.95;;;2.72;;
20073;SDS011;10197;54.282;10.078;2023-11-22T00:07:36;2.75;;;2.55;;
20073;SDS011;10197;54.282;10.078;2023-11-22T00:10:03;4.07;;;2.75;;
20073;SDS011;10197;54.282;10.078;2023-11-22T00:12:30;3.78;;;2.78;;
20073;SDS011;10197;54.282;10.078;2023-11-22T00:15:01;5.88;;;2.85;;
20073;SDS011;10197;54.282;10.078;2023-11-22T00:17:31;3.20;;;2.78;;
20073;SDS011;10197;54.282;10.078;2023-11-22T00:19:57;3.33;;;3.03;;
20073;SDS011;10197;54.282;10.078;2023-11-22T00:22:25;3.08;;;2.80;;
20073;SDS011;10197;54.282;10.078;2023-11-22T00:24:52;4.50;;;2.75;;
20073;SDS011;10197;54.282;10.078;2023-11-22T00:27:19;5.78;;;2.90;;
20073;SDS011;10197;54.282;10.078;2023-11-22T00:29:47;5.20;;;2.50;;
20073;SDS011;10197;54.282;10.078;2023-11-22T00:32:13;3.28;;;2.63;;
20073;SDS011;10197;54.282;10.078;2023-11-22T00:34:42;3.17;;;2.65;;
20073;SDS011;10197;54.282;10.078;2023-11-22T00:37:08;3.30;;;2.58;;
20073;SDS011;10197;54.282;10.078;2023-11-22T00:39:36;3.08;;;2.78;;
20073;SDS011;10197;54.282;10.078;2023-11-22T00:42:03;3.13;;;2.40;;
20073;SDS011;10197;54.282;10.078;2023-11-22T00:44:30;2.80;;;2.40;;
20073;SDS011;10197;54.282;10.078;2023-11-22T00:46:56;3.53;;;2.88;;
20073;SDS011;10197;54.282;10.078;2023-11-22T00:49:23;4.68;;;3.13;;
20073;SDS011;10197;54.282;10.078;2023-11-22T00:51:51;3.22;;;2.92;;
20073;SDS011;10197;54.282;10.078;2023-11-22T00:54:18;4.30;;;2.70;;
20073;SDS011;10197;54.282;10.078;2023-11-22T00:56:45;5.80;;;2.83;;
20073;SDS011;10197;54.282;10.078;2023-11-22T00:59:11;4.25;;;2.97;;
20073;SDS011;10197;54.282;10.078;2023-11-22T01:01:39;5.13;;;3.10;;
20073;SDS011;10197;54.282;10.078;2023-11-22T01:04:06;3.40;;;2.80;;
20073;SDS011;10197;54.282;10.078;2023-11-22T01:06:33;3.83;;;3.00;;
20073;SDS011;10197;54.282;10.078;2023-11-22T01:09:03;3.95;;;2.80;;
20073;SDS011;10197;54.282;10.078;2023-11-22T01:11:30;3.28;;;2.60;;
20073;SDS011;10197;54.282;10.078;2023-11-22T01:13:57;3.95;;;2.92;;
20073;SDS011;10197;54.282;10.078;2023-11-22T01:16:24;3.05;;;2.60;;
20073;SDS011;10197;54.282;10.078;2023-11-22T01:18:50;3.78;;;3.05;;
20073;SDS011;10197;54.282;10.078;2023-11-22T01:21:18;3.00;;;2.70;;
20073;SDS011;10197;54.282;10.078;2023-11-22T01:23:44;2.85;;;2.65;;
20073;SDS011;10197;54.282;10.078;2023-11-22T01:26:13;3.92;;;3.10;;
20073;SDS011;10197;54.282;10.078;2023-11-22T01:28:42;6.25;;;3.08;;
20073;SDS011;10197;54.282;10.078;2023-11-22T01:31:10;4.30;;;2.85;;
20073;SDS011;10197;54.282;10.078;2023-11-22T01:33:38;3.33;;;2.97;;
20073;SDS011;10197;54.282;10.078;2023-11-22T01:36:05;3.22;;;2.92;;
20073;SDS011;10197;54.282;10.078;2023-11-22T01:38:32;5.18;;;3.15;;
20073;SDS011;10197;54.282;10.078;2023-11-22T01:40:59;5.40;;;2.83;;
20073;SDS011;10197;54.282;10.078;2023-11-22T01:43:28;3.67;;;2.83;;
20073;SDS011;10197;54.282;10.078;2023-11-22T01:45:56;3.10;;;2.78;;
20073;SDS011;10197;54.282;10.078;2023-11-22T01:48:23;5.28;;;2.78;;
20073;SDS011;10197;54.282;10.078;2023-11-22T01:50:53;3.42;;;2.70;;
20073;SDS011;10197;54.282;10.078;2023-11-22T01:53:20;3.47;;;3.17;;
20073;SDS011;10197;54.282;10.078;2023-11-22T01:55:47;3.53;;;2.70;;
20073;SDS011;10197;54.282;10.078;2023-11-22T01:58:14;3.47;;;3.08;;
20073;SDS011;10197;54.282;10.078;2023-11-22T02:00:43;4.80;;;2.75;;
20073;SDS011;10197;54.282;10.078;2023-11-22T02:03:13;4.38;;;2.60;;
20073;SDS011;10197;54.282;10.078;2023-11-22T02:05:40;2.92;;;2.63;;
20073;SDS011;10197;54.282;10.078;2023-11-22T02:08:08;3.30;;;2.83;;
20073;SDS011;10197;54.282;10.078;2023-11-22T02:10:36;4.60;;;3.20;;
20073;SDS011;10197;54.282;10.078;2023-11-22T02:13:03;3.65;;;2.80;;
20073;SDS011;10197;54.282;10.078;2023-11-22T02:15:32;3.97;;;2.60;;
20073;SDS011;10197;54.282;10.078;2023-11-22T02:18:00;3.58;;;2.85;;
20073;SDS011;10197;54.282;10.078;2023-11-22T02:20:28;4.45;;;3.08;;
20073;SDS011;10197;54.282;10.078;2023-11-22T02:22:54;3.97;;;2.72;;
20073;SDS011;10197;54.282;10.078;2023-11-22T02:25:23;3.88;;;3.20;;
20073;SDS011;10197;54.282;10.078;2023-11-22T02:27:50;3.10;;;2.80;;
20073;SDS011;10197;54.282;10.078;2023-11-22T02:30:16;3.90;;;3.45;;
20073;SDS011;10197;54.282;10.078;2023-11-22T02:32:43;4.75;;;3.75;;
20073;SDS011;10197;54.282;10.078;2023-11-22T02:35:12;3.65;;;3.15;;
20073;SDS011;10197;54.282;10.078;2023-11-22T02:37:41;3.15;;;2.85;;
20073;SDS011;10197;54.282;10.078;2023-11-22T02:40:12;3.83;;;3.00;;
20073;SDS011;10197;54.282;10.078;2023-11-22T02:42:45;3.00;;;2.75;;
20073;SDS011;10197;54.282;10.078;2023-11-22T02:45:13;3.88;;;3.22;;
20073;SDS011;10197;54.282;10.078;2023-11-22T02:47:40;3.90;;;2.85;;
20073;SDS011;10197;54.282;10.078;2023-11-22T02:50:11;6.95;;;2.88;;
20073;SDS011;10197;54.282;10.078;2023-11-22T02:52:38;4.18;;;3.08;;
20073;SDS011;10197;54.282;10.078;2023-11-22T02:55:05;3.92;;;2.78;;
20073;SDS011;10197;54.282;10.078;2023-11-22T02:57:34;3.65;;;3.15;;
20073;SDS011;10197;54.282;10.078;2023-11-22T03:00:03;3.38;;;3.00;;
20073;SDS011;10197;54.282;10.078;2023-11-22T03:02:31;3.25;;;2.80;;
20073;SDS011;10197;54.282;10.078;2023-11-22T03:04:58;3.38;;;3.00;;
20073;SDS011;10197;54.282;10.078;2023-11-22T03:07:25;5.30;;;3.55;;
20073;SDS011;10197;54.282;10.078;2023-11-22T03:09:52;5.13;;;3.53;;
20073;SDS011;10197;54.282;10.078;2023-11-22T03:12:19;4.82;;;3.30;;
20073;SDS011;10197;54.282;10.078;2023-11-22T03:14:46;6.53;;;4.13;;
20073;SDS011;10197;54.282;10.078;2023-11-22T03:17:15;4.50;;;3.03;;
20073;SDS011;10197;54.282;10.078;2023-11-22T03:19:43;3.92;;;3.20;;
20073;SDS011;10197;54.282;10.078;2023-11-22T03:22:10;5.97;;;3.33;;
20073;SDS011;10197;54.282;10.078;2023-11-22T03:24:37;6.47;;;3.85;;
20073;SDS011;10197;54.282;10.078;2023-11-22T03:27:04;5.85;;;3.25;;
20073;SDS011;10197;54.282;10.078;2023-11-22T03:29:31;3.25;;;2.88;;
20073;SDS011;10197;54.282;10.078;2023-11-22T03:32:00;3.70;;;3.10;;
20073;SDS011;10197;54.282;10.078;2023-11-22T03:34:28;5.82;;;3.47;;
20073;SDS011;10197;54.282;10.078;2023-11-22T03:36:55;5.03;;;3.28;;
20073;SDS011;10197;54.282;10.078;2023-11-22T03:39:21;4.95;;;3.67;;
20073;SDS011;10197;54.282;10.078;2023-11-22T03:41:48;5.15;;;3.10;;
20073;SDS011;10197;54.282;10.078;2023-11-22T03:44:15;3.40;;;3.10;;
20073;SDS011;10197;54.282;10.078;2023-11-22T03:46:42;5.38;;;3.08;;
20073;SDS011;10197;54.282;10.078;2023-11-22T03:49:09;4.80;;;3.67;;
20073;SDS011;10197;54.282;10.078;2023-11-22T03:51:38;3.83;;;3.30;;
20073;SDS011;10197;54.282;10.078;2023-11-22T03:54:05;3.65;;;3.08;;
20073;SDS011;10197;54.282;10.078;2023-11-22T03:56:32;3.35;;;2.97;;
20073;SDS011;10197;54.282;10.078;2023-11-22T03:58:58;3.38;;;3.08;;
20073;SDS011;10197;54.282;10.078;2023-11-22T04:01:25;3.58;;;3.05;;
20073;SDS011;10197;54.282;10.078;2023-11-22T04:03:52;3.70;;;2.97;;
20073;SDS011;10197;54.282;10.078;2023-11-22T04:06:19;4.05;;;2.92;;
20073;SDS011;10197;54.282;10.078;2023-11-22T04:08:47;4.00;;;3.05;;
20073;SDS011;10197;54.282;10.078;2023-11-22T04:11:14;3.53;;;3.13;;
20073;SDS011;10197;54.282;10.078;2023-11-22T04:13:42;5.55;;;2.80;;
20073;SDS011;10197;54.282;10.078;2023-11-22T04:16:08;4.25;;;3.00;;
20073;SDS011;10197;54.282;10.078;2023-11-22T04:18:37;3.60;;;3.20;;
20073;SDS011;10197;54.282;10.078;2023-11-22T04:21:04;4.13;;;3.10;;
20073;SDS011;10197;54.282;10.078;2023-11-22T04:23:31;5.63;;;3.30;;
20073;SDS011;10197;54.282;10.078;2023-11-22T04:25:59;5.30;;;3.40;;
20073;SDS011;10197;54.282;10.078;2023-11-22T04:28:27;5.35;;;3.10;;
20073;SDS011;10197;54.282;10.078;2023-11-22T04:30:54;3.42;;;3.13;;
20073;SDS011;10197;54.282;10.078;2023-11-22T04:33:21;4.85;;;3.42;;
20073;SDS011;10197;54.282;10.078;2023-11-22T04:35:48;3.58;;;3.22;;
20073;SDS011;10197;54.282;10.078;2023-11-22T04:38:15;11.88;;;6.68;;
20073;SDS011;10197;54.282;10.078;2023-11-22T04:40:42;13.90;;;7.82;;
20073;SDS011;10197;54.282;10.078;2023-11-22T04:43:11;30.65;;;13.32;;
20073;SDS011;10197;54.282;10.078;2023-11-22T04:45:38;34.20;;;14.95;;
20073;SDS011;10197;54.282;10.078;2023-11-22T04:48:05;33.65;;;14.50;;
20073;SDS011;10197;54.282;10.078;2023-11-22T04:50:32;33.40;;;14.02;;
20073;SDS011;10197;54.282;10.078;2023-11-22T04:52:59;24.60;;;10.95;;
20073;SDS011;10197;54.282;10.078;2023-11-22T04:55:26;14.93;;;7.68;;
20073;SDS011;10197;54.282;10.078;2023-11-22T04:57:53;15.85;;;7.03;;
20073;SDS011;10197;54.282;10.078;2023-11-22T05:00:22;9.10;;;5.95;;
20073;SDS011;10197;54.282;10.078;2023-11-22T05:02:49;13.60;;;6.22;;
20073;SDS011;10197;54.282;10.078;2023-11-22T05:05:15;9.25;;;5.47;;
20073;SDS011;10197;54.282;10.078;2023-11-22T05:07:42;8.75;;;5.20;;
20073;SDS011;10197;54.282;10.078;2023-11-22T05:10:09;10.10;;;5.88;;
20073;SDS011;10197;54.282;10.078;2023-11-22T05:12:36;16.27;;;7.53;;
20073;SDS011;10197;54.282;10.078;2023-11-22T05:15:03;9.05;;;6.13;;
20073;SDS011;10197;54.282;10.078;2023-11-22T05:17:32;10.02;;;7.03;;
20073;SDS011;10197;54.282;10.078;2023-11-22T05:19:59;13.57;;;8.20;;
20073;SDS011;10197;54.282;10.078;2023-11-22T05:22:25;12.43;;;7.78;;
20073;SDS011;10197;54.282;10.078;2023-11-22T05:24:52;12.27;;;8.23;;
20073;SDS011;10197;54.282;10.078;2023-11-22T05:27:19;13.00;;;8.07;;
20073;SDS011;10197;54.282;10.078;2023-11-22T05:29:45;16.25;;;9.90;;
20073;SDS011;10197;54.282;10.078;2023-11-22T05:32:12;17.67;;;10.65;;
20073;SDS011;10197;54.282;10.078;2023-11-22T05:34:40;14.80;;;9.85;;
20073;SDS011;10197;54.282;10.078;2023-11-22T05:37:08;16.77;;;10.70;;
20073;SDS011;10197;54.282;10.078;2023-11-22T05:39:35;28.55;;;15.70;;
20073;SDS011;10197;54.282;10.078;2023-11-22T05:42:02;20.23;;;11.65;;
20073;SDS011;10197;54.282;10.078;2023-11-22T05:44:28;18.25;;;11.63;;
20073;SDS011;10197;54.282;10.078;2023-11-22T05:46:55;18.20;;;10.15;;
20073;SDS011;10197;54.282;10.078;2023-11-22T05:49:22;16.38;;;8.93;;
20073;SDS011;10197;54.282;10.078;2023-11-22T05:51:50;10.68;;;7.15;;
20073;SDS011;10197;54.282;10.078;2023-11-22T05:54:17;12.50;;;6.90;;
20073;SDS011;10197;54.282;10.078;2023-11-22T05:56:43;6.43;;;5.18;;
20073;SDS011;10197;54.282;10.078;2023-11-22T05:59:10;7.00;;;4.63;;
20073;SDS011;10197;54.282;10.078;2023-11-22T06:01:37;5.95;;;4.38;;
20073;SDS011;10197;54.282;10.078;2023-11-22T06:04:03;5.95;;;4.45;;
20073;SDS011;10197;54.282;10.078;2023-11-22T06:06:30;5.90;;;4.13;;
20073;SDS011;10197;54.282;10.078;2023-11-22T06:08:59;5.05;;;4.35;;
20073;SDS011;10197;54.282;10.078;2023-11-22T06:11:25;8.52;;;3.90;;
20073;SDS011;10197;54.282;10.078;2023-11-22T06:13:52;6.63;;;4.10;;
20073;SDS011;10197;54.282;10.078;2023-11-22T06:16:19;7.40;;;5.85;;
20073;SDS011;10197;54.282;10.078;2023-11-22T06:18:45;9.18;;;6.25;;
20073;SDS011;10197;54.282;10.078;2023-11-22T06:21:12;7.95;;;6.13;;
20073;SDS011;10197;54.282;10.078;2023-11-22T06:23:39;12.57;;;7.95;;
20073;SDS011;10197;54.282;10.078;2023-11-22T06:26:07;17.55;;;9.32;;
20073;SDS011;10197;54.282;10.078;2023-11-22T06:28:33;13.10;;;8.77;;
20073;SDS011;10197;54.282;10.078;2023-11-22T06:31:01;8.45;;;6.93;;
20073;SDS011;10197;54.282;10.078;2023-11-22T06:33:28;10.63;;;7.25;;
20073;SDS011;10197;54.282;10.078;2023-11-22T06:35:55;9.35;;;6.43;;
20073;SDS011;10197;54.282;10.078;2023-11-22T06:38:21;8.52;;;5.70;;
20073;SDS011;10197;54.282;10.078;2023-11-22T06:40:48;6.50;;;5.32;;
20073;SDS011;10197;54.282;10.078;2023-11-22T06:43:16;6.78;;;5.20;;
20073;SDS011;10197;54.282;10.078;2023-11-22T06:45:43;7.68;;;5.05;;
20073;SDS011;10197;54.282;10.078;2023-11-22T06:48:10;6.43;;;5.53;;
20073;SDS011;10197;54.282;10.078;2023-11-22T06:50:36;6.82;;;5.38;;
20073;SDS011;10197;54.282;10.078;2023-11-22T06:53:03;5.97;;;4.90;;
20073;SDS011;10197;54.282;10.078;2023-11-22T06:55:30;7.90;;;5.10;;
20073;SDS011;10197;54.282;10.078;2023-11-22T06:57:58;7.57;;;5.38;;
20073;SDS011;10197;54.282;10.078;2023-11-22T07:00:26;7.78;;;5.30;;
20073;SDS011;10197;54.282;10.078;2023-11-22T07:02:53;6.13;;;5.10;;
20073;SDS011;10197;54.282;10.078;2023-11-22T07:05:21;11.80;;;8.00;;
20073;SDS011;10197;54.282;10.078;2023-11-22T07:07:49;9.15;;;6.53;;
20073;SDS011;10197;54.282;10.078;2023-11-22T07:10:15;8.15;;;5.70;;
20073;SDS011;10197;54.282;10.078;2023-11-22T07:12:46;7.28;;;4.97;;
20073;SDS011;10197;54.282;10.078;2023-11-22T07:15:13;6.43;;;5.25;;
20073;SDS011;10197;54.282;10.078;2023-11-22T07:17:41;6.25;;;4.90;;
20073;SDS011;10197;54.282;10.078;2023-11-22T07:20:08;5.20;;;4.70;;
20073;SDS011;10197;54.282;10.078;2023-11-22T07:22:41;6.43;;;5.07;;
20073;SDS011;10197;54.282;10.078;2023-11-22T07:25:09;6.13;;;5.18;;
20073;SDS011;10197;54.282;10.078;2023-11-22T07:27:43;7.10;;;5.35;;
20073;SDS011;10197;54.282;10.078;2023-11-22T07:30:12;7.15;;;5.00;;
20073;SDS011;10197;54.282;10.078;2023-11-22T07:32:41;7.88;;;5.22;;
20073;SDS011;10197;54.282;10.078;2023-11-22T07:35:08;4.70;;;4.15;;
20073;SDS011;10197;54.282;10.078;2023-11-22T07:37:35;5.45;;;4.30;;
20073;SDS011;10197;54.282;10.078;2023-11-22T07:40:06;6.35;;;4.82;;
20073;SDS011;10197;54.282;10.078;2023-11-22T07:42:34;8.02;;;4.90;;
20073;SDS011;10197;54.282;10.078;2023-11-22T07:45:01;6.43;;;4.65;;
20073;SDS011;10197;54.282;10.078;2023-11-22T07:47:28;5.28;;;4.78;;
20073;SDS011;10197;54.282;10.078;2023-11-22T07:49:56;6.60;;;4.85;;
20073;SDS011;10197;54.282;10.078;2023-11-22T07:52:24;6.55;;;5.35;;
20073;SDS011;10197;54.282;10.078;2023-11-22T07:54:55;6.15;;;5.32;;
20073;SDS011;10197;54.282;10.078;2023-11-22T07:57:22;6.00;;;4.75;;
20073;SDS011;10197;54.282;10.078;2023-11-22T07:59:49;5.85;;;4.68;;
20073;SDS011;10197;54.282;10.078;2023-11-22T08:02:15;7.43;;;4.97;;
20073;SDS011;10197;54.282;10.078;2023-11-22T08:04:44;5.65;;;4.95;;
20073;SDS011;10197;54.282;10.078;2023-11-22T08:07:13;6.57;;;5.38;;
20073;SDS011;10197;54.282;10.078;2023-11-22T08:09:40;7.60;;;4.63;;
20073;SDS011;10197;54.282;10.078;2023-11-22T08:12:07;8.02;;;5.65;;
20073;SDS011;10197;54.282;10.078;2023-11-22T08:14:33;7.53;;;5.97;;
20073;SDS011;10197;54.282;10.078;2023-11-22T08:17:01;9.07;;;6.18;;
20073;SDS011;10197;54.282;10.078;2023-11-22T08:19:28;6.53;;;5.40;;
20073;SDS011;10197;54.282;10.078;2023-11-22T08:21:55;7.88;;;5.47;;
20073;SDS011;10197;54.282;10.078;2023-11-22T08:24:23;8.40;;;5.63;;
20073;SDS011;10197;54.282;10.078;2023-11-22T08:26:50;6.78;;;5.35;;
20073;SDS011;10197;54.282;10.078;2023-11-22T08:29:17;5.75;;;5.13;;
20073;SDS011;10197;54.282;10.078;2023-11-22T08:31:43;7.70;;;4.82;;
20073;SDS011;10197;54.282;10.078;2023-11-22T08:34:10;7.25;;;5.60;;
20073;SDS011;10197;54.282;10.078;2023-11-22T08:36:37;6.15;;;5.18;;
20073;SDS011;10197;54.282;10.078;2023-11-22T08:39:03;7.07;;;5.72;;
20073;SDS011;10197;54.282;10.078;2023-11-22T08:41:32;7.65;;;6.15;;
20073;SDS011;10197;54.282;10.078;2023-11-22T08:43:59;8.10;;;6.55;;
20073;SDS011;10197;54.282;10.078;2023-11-22T08:46:26;9.00;;;6.60;;
20073;SDS011;10197;54.282;10.078;2023-11-22T08:48:53;7.35;;;5.70;;
20073;SDS011;10197;54.282;10.078;2023-11-22T08:51:21;7.60;;;6.20;;
20073;SDS011;10197;54.282;10.078;2023-11-22T08:53:48;7.03;;;6.28;;
20073;SDS011;10197;54.282;10.078;2023-11-22T08:56:15;8.82;;;6.40;;
20073;SDS011;10197;54.282;10.078;2023-11-22T08:58:43;8.35;;;5.93;;
20073;SDS011;10197;54.282;10.078;2023-11-22T09:01:09;9.32;;;7.32;;
20073;SDS011;10197;54.282;10.078;2023-11-22T09:03:39;7.70;;;6.47;;
20073;SDS011;10197;54.282;10.078;2023-11-22T09:06:06;9.18;;;6.90;;
20073;SDS011;10197;54.282;10.078;2023-11-22T09:08:33;6.65;;;5.80;;
20073;SDS011;10197;54.282;10.078;2023-11-22T09:11:00;8.10;;;6.32;;
20073;SDS011;10197;54.282;10.078;2023-11-22T09:13:31;9.73;;;6.40;;
20073;SDS011;10197;54.282;10.078;2023-11-22T09:15:59;8.10;;;6.20;;
20073;SDS011;10197;54.282;10.078;2023-11-22T09:18:26;10.10;;;6.95;;
20073;SDS011;10197;54.282;10.078;2023-11-22T09:20:53;8.60;;;6.80;;
20073;SDS011;10197;54.282;10.078;2023-11-22T09:23:20;9.43;;;7.65;;
20073;SDS011;10197;54.282;10.078;2023-11-22T09:25:47;11.15;;;9.00;;
20073;SDS011;10197;54.282;10.078;2023-11-22T11:27:40;5.13;;;3.70;;
20073;SDS011;10197;54.282;10.078;2023-11-22T11:33:06;4.60;;;3.70;;
20073;SDS011;10197;54.282;10.078;2023-11-22T11:35:38;6.60;;;3.85;;
20073;SDS011;10197;54.282;10.078;2023-11-22T11:51:42;5.55;;;3.60;;
20073;SDS011;10197;54.282;10.078;2023-11-22T11:54:09;5.28;;;3.83;;
20073;SDS011;10197;54.282;10.078;2023-11-22T11:56:36;6.97;;;4.68;;
20073;SDS011;10197;54.282;10.078;2023-11-22T11:59:03;4.57;;;3.92;;
20073;SDS011;10197;54.282;10.078;2023-11-22T12:01:30;5.90;;;3.72;;
20073;SDS011;10197;54.282;10.078;2023-11-22T12:03:57;5.35;;;3.80;;
20073;SDS011;10197;54.282;10.078;2023-11-22T12:06:28;5.20;;;3.75;;
20073;SDS011;10197;54.282;10.078;2023-11-22T12:08:57;8.13;;;4.80;;
20073;SDS011;10197;54.282;10.078;2023-11-22T12:11:24;4.57;;;3.80;;
20073;SDS011;10197;54.282;10.078;2023-11-22T12:13:51;4.43;;;3.22;;
20073;SDS011;10197;54.282;10.078;2023-11-22T12:16:17;6.22;;;3.30;;
20073;SDS011;10197;54.282;10.078;2023-11-22T12:18:45;5.22;;;3.70;;
20073;SDS011;10197;54.282;10.078;2023-11-22T12:21:13;4.20;;;3.55;;
20073;SDS011;10197;54.282;10.078;2023-11-22T12:23:40;4.65;;;3.25;;
20073;SDS011;10197;54.282;10.078;2023-11-22T12:26:11;4.63;;;3.40;;
20073;SDS011;10197;54.282;10.078;2023-11-22T12:28:39;5.40;;;3.70;;
20073;SDS011;10197;54.282;10.078;2023-11-22T12:31:07;4.03;;;3.63;;
20073;SDS011;10197;54.282;10.078;2023-11-22T12:33:35;6.40;;;3.90;;
20073;SDS011;10197;54.282;10.078;2023-11-22T12:36:02;5.00;;;3.38;;
20073;SDS011;10197;54.282;10.078;2023-11-22T12:38:29;4.05;;;3.40;;
20073;SDS011;10197;54.282;10.078;2023-11-22T12:40:56;5.22;;;3.28;;
20073;SDS011;10197;54.282;10.078;2023-11-22T12:43:25;6.15;;;3.22;;
20073;SDS011;10197;54.282;10.078;2023-11-22T12:45:58;3.63;;;2.70;;
20073;SDS011;10197;54.282;10.078;2023-11-22T12:48:26;6.25;;;3.95;;
20073;SDS011;10197;54.282;10.078;2023-11-22T12:50:55;4.05;;;3.35;;
20073;SDS011;10197;54.282;10.078;2023-11-22T12:53:22;4.65;;;3.50;;
20073;SDS011;10197;54.282;10.078;2023-11-22T12:55:51;3.50;;;3.20;;
20073;SDS011;10197;54.282;10.078;2023-11-22T12:58:19;6.22;;;3.65;;
20073;SDS011;10197;54.282;10.078;2023-11-22T13:00:49;3.85;;;3.40;;
20073;SDS011;10197;54.282;10.078;2023-11-22T13:03:16;4.22;;;3.05;;
20073;SDS011;10197;54.282;10.078;2023-11-22T13:05:43;3.67;;;3.38;;
20073;SDS011;10197;54.282;10.078;2023-11-22T13:08:11;3.95;;;3.28;;
20073;SDS011;10197;54.282;10.078;2023-11-22T13:10:39;4.55;;;3.47;;
20073;SDS011;10197;54.282;10.078;2023-11-22T13:13:05;5.22;;;3.60;;
20073;SDS011;10197;54.282;10.078;2023-11-22T13:15:34;6.43;;;3.90;;
20073;SDS011;10197;54.282;10.078;2023-11-22T13:18:02;4.75;;;3.25;;
20073;SDS011;10197;54.282;10.078;2023-11-22T13:20:31;3.83;;;2.95;;
20073;SDS011;10197;54.282;10.078;2023-11-22T13:22:59;3.65;;;3.05;;
20073;SDS011;10197;54.282;10.078;2023-11-22T13:25:26;3.90;;;3.25;;
20073;SDS011;10197;54.282;10.078;2023-11-22T13:27:53;4.50;;;3.05;;
20073;SDS011;10197;54.282;10.078;2023-11-22T13:30:21;5.43;;;2.75;;
20073;SDS011;10197;54.282;10.078;2023-11-22T13:32:50;3.97;;;3.33;;
20073;SDS011;10197;54.282;10.078;2023-11-22T13:35:18;4.88;;;3.30;;
20073;SDS011;10197;54.282;10.078;2023-11-22T13:37:47;4.35;;;3.50;;
20073;SDS011;10197;54.282;10.078;2023-11-22T13:40:14;2.85;;;2.65;;
20073;SDS011;10197;54.282;10.078;2023-11-22T13:42:47;3.03;;;2.70;;
20073;SDS011;10197;54.282;10.078;2023-11-22T13:45:17;5.10;;;3.30;;
20073;SDS011;10197;54.282;10.078;2023-11-22T13:47:45;4.20;;;2.88;;
20073;SDS011;10197;54.282;10.078;2023-11-22T13:50:12;4.70;;;2.58;;
20073;SDS011;10197;54.282;10.078;2023-11-22T13:52:41;3.33;;;3.00;;
20073;SDS011;10197;54.282;10.078;2023-11-22T13:55:08;3.95;;;2.72;;
20073;SDS011;10197;54.282;10.078;2023-11-22T13:57:36;5.60;;;3.03;;
20073;SDS011;10197;54.282;10.078;2023-11-22T14:00:03;3.00;;;2.70;;
20073;SDS011;10197;54.282;10.078;2023-11-22T14:02:34;3.35;;;2.88;;
20073;SDS011;10197;54.282;10.078;2023-11-22T14:05:01;5.28;;;2.65;;
20073;SDS011;10197;54.282;10.078;2023-11-22T14:07:33;3.25;;;2.60;;
20073;SDS011;10197;54.282;10.078;2023-11-22T14:10:02;4.20;;;2.75;;
20073;SDS011;10197;54.282;10.078;2023-11-22T14:12:29;3.17;;;2.40;;
20073;SDS011;10197;54.282;10.078;2023-11-22T14:14:56;2.60;;;2.40;;
20073;SDS011;10197;54.282;10.078;2023-11-22T14:17:23;2.35;;;2.13;;
20073;SDS011;10197;54.282;10.078;2023-11-22T14:19:49;2.55;;;2.35;;
20073;SDS011;10197;54.282;10.078;2023-11-22T14:22:16;2.67;;;2.47;;
20073;SDS011;10197;54.282;10.078;2023-11-22T14:24:44;2.65;;;2.20;;
20073;SDS011;10197;54.282;10.078;2023-11-22T14:27:13;3.53;;;2.60;;
20073;SDS011;10197;54.282;10.078;2023-11-22T14:29:40;2.40;;;2.17;;
20073;SDS011;10197;54.282;10.078;2023-11-22T14:32:07;2.58;;;2.30;;
20073;SDS011;10197;54.282;10.078;2023-11-22T14:34:34;3.85;;;2.78;;
20073;SDS011;10197;54.282;10.078;2023-11-22T14:37:02;2.58;;;2.30;;
20073;SDS011;10197;54.282;10.078;2023-11-22T14:39:28;2.70;;;2.42;;
20073;SDS011;10197;54.282;10.078;2023-11-22T14:41:55;2.67;;;2.22;;
20073;SDS011;10197;54.282;10.078;2023-11-22T14:44:23;2.28;;;2.08;;
20073;SDS011;10197;54.282;10.078;2023-11-22T14:46:50;2.88;;;2.30;;
20073;SDS011;10197;54.282;10.078;2023-11-22T14:49:17;3.35;;;2.55;;
20073;SDS011;10197;54.282;10.078;2023-11-22T14:51:44;3.42;;;2.28;;
20073;SDS011;10197;54.282;10.078;2023-11-22T14:54:12;2.40;;;2.20;;
20073;SDS011;10197;54.282;10.078;2023-11-22T14:56:39;4.10;;;2.38;;
20073;SDS011;10197;54.282;10.078;2023-11-22T14:59:06;2.78;;;2.33;;
20073;SDS011;10197;54.282;10.078;2023-11-22T15:01:34;2.72;;;2.40;;
20073;SDS011;10197;54.282;10.078;2023-11-22T15:04:00;2.40;;;2.20;;
20073;SDS011;10197;54.282;10.078;2023-11-22T15:06:27;2.50;;;2.13;;
20073;SDS011;10197;54.282;10.078;2023-11-22T15:08:54;2.50;;;2.20;;
20073;SDS011;10197;54.282;10.078;2023-11-22T15:11:24;3.05;;;2.22;;
20073;SDS011;10197;54.282;10.078;2023-11-22T15:13:51;2.13;;;1.92;;
20073;SDS011;10197;54.282;10.078;2023-11-22T15:16:18;3.58;;;2.10;;
20073;SDS011;10197;54.282;10.078;2023-11-22T15:18:46;2.13;;;1.88;;
20073;SDS011;10197;54.282;10.078;2023-11-22T15:21:13;2.08;;;1.90;;
20073;SDS011;10197;54.282;10.078;2023-11-22T15:23:39;2.10;;;2.00;;
20073;SDS011;10197;54.282;10.078;2023-11-22T15:26:07;2.83;;;1.90;;
20073;SDS011;10197;54.282;10.078;2023-11-22T15:28:33;2.53;;;2.10;;
20073;SDS011;10197;54.282;10.078;2023-11-22T15:31:00;2.53;;;2.03;;
20073;SDS011;10197;54.282;10.078;2023-11-22T15:33:27;2.40;;;2.20;;
20073;SDS011;10197;54.282;10.078;2023-11-22T15:35:56;2.08;;;1.92;;
20073;SDS011;10197;54.282;10.078;2023-11-22T15:38:22;3.30;;;1.75;;
20073;SDS011;10197;54.282;10.078;2023-11-22T15:40:49;2.45;;;1.98;;
20073;SDS011;10197;54.282;10.078;2023-11-22T15:43:16;1.73;;;1.63;;
20073;SDS011;10197;54.282;10.078;2023-11-22T15:45:42;2.50;;;2.30;;
20073;SDS011;10197;54.282;10.078;2023-11-22T15:48:09;2.30;;;1.90;;
20073;SDS011;10197;54.282;10.078;2023-11-22T15:50:38;2.92;;;2.30;;
20073;SDS011;10197;54.282;10.078;2023-11-22T15:53:06;2.33;;;2.10;;
20073;SDS011;10197;54.282;10.078;2023-11-22T15:55:38;3.13;;;2.13;;
20073;SDS011;10197;54.282;10.078;2023-11-22T15:58:05;2.40;;;2.20;;
20073;SDS011;10197;54.282;10.078;2023-11-22T16:00:32;2.00;;;1.90;;
20073;SDS011;10197;54.282;10.078;2023-11-22T16:02:59;2.83;;;2.45;;
20073;SDS011;10197;54.282;10.078;2023-11-22T16:05:26;2.90;;;2.60;;
20073;SDS011;10197;54.282;10.078;2023-11-22T16:07:53;5.20;;;2.50;;
20073;SDS011;10197;54.282;10.078;2023-11-22T16:10:22;2.80;;;2.47;;
20073;SDS011;10197;54.282;10.078;2023-11-22T16:12:48;2.67;;;2.30;;
20073;SDS011;10197;54.282;10.078;2023-11-22T16:15:16;2.55;;;2.35;;
20073;SDS011;10197;54.282;10.078;2023-11-22T16:17:44;3.72;;;2.60;;
20073;SDS011;10197;54.282;10.078;2023-11-22T16:20:11;2.92;;;2.38;;
20073;SDS011;10197;54.282;10.078;2023-11-22T16:22:39;2.72;;;2.50;;
20073;SDS011;10197;54.282;10.078;2023-11-22T16:25:09;2.50;;;2.30;;
20073;SDS011;10197;54.282;10.078;2023-11-22T16:27:39;3.15;;;2.47;;
20073;SDS011;10197;54.282;10.078;2023-11-22T16:30:06;3.63;;;2.90;;
20073;SDS011;10197;54.282;10.078;2023-11-22T16:32:33;2.83;;;2.63;;
20073;SDS011;10197;54.282;10.078;2023-11-22T16:35:02;3.38;;;2.88;;
20073;SDS011;10197;54.282;10.078;2023-11-22T16:37:28;2.85;;;2.45;;
20073;SDS011;10197;54.282;10.078;2023-11-22T16:39:55;2.63;;;2.42;;
20073;SDS011;10197;54.282;10.078;2023-11-22T16:42:22;2.22;;;2.05;;
20073;SDS011;10197;54.282;10.078;2023-11-22T16:44:51;2.55;;;2.35;;
20073;SDS011;10197;54.282;10.078;2023-11-22T16:47:18;2.60;;;2.40;;
20073;SDS011;10197;54.282;10.078;2023-11-22T16:49:45;2.55;;;2.35;;